createdAt,value
2019-03-31T00:02:00.553Z,34.20
2019-03-31T00:04:29.065Z,44.43
2019-03-31T00:06:57.625Z,43.57
2019-03-31T00:09:25.963Z,47.13
2019-03-31T00:11:54.371Z,48.83
2019-03-31T00:14:23.532Z,52.30
2019-03-31T00:16:52.633Z,45.80
2019-03-31T00:19:20.901Z,50.13
2019-03-31T00:21:49.059Z,51.87
2019-03-31T00:24:17.673Z,48.90
2019-03-31T00:26:45.931Z,47.73
2019-03-31T00:29:14.255Z,51.73
2019-03-31T00:31:42.629Z,44.40
2019-03-31T00:34:10.769Z,46.80
2019-03-31T00:36:39.060Z,43.13
2019-03-31T00:39:07.260Z,44.07
2019-03-31T00:41:35.518Z,47.13
2019-03-31T00:44:03.795Z,46.40
2019-03-31T00:46:32.684Z,44.90
2019-03-31T00:49:00.893Z,42.80
2019-03-31T00:51:29.462Z,46.23
2019-03-31T00:53:57.610Z,41.13
2019-03-31T00:56:25.800Z,39.77
2019-03-31T00:58:53.965Z,39.70
2019-03-31T01:01:36.302Z,38.53
2019-03-31T01:03:59.816Z,35.27
2019-03-31T01:06:28.720Z,34.33
2019-03-31T01:08:56.979Z,35.17
2019-03-31T01:11:25.642Z,34.07
2019-03-31T01:13:53.988Z,39.00
2019-03-31T01:16:23.199Z,35.10
2019-03-31T01:18:51.599Z,40.00
2019-03-31T01:21:20.071Z,38.93
2019-03-31T01:23:48.588Z,39.20
2019-03-31T01:26:18.536Z,28.37
2019-03-31T01:28:46.858Z,29.63
2019-03-31T01:31:15.192Z,35.30
2019-03-31T01:33:43.766Z,29.53
2019-03-31T01:36:12.017Z,29.07
2019-03-31T01:38:40.504Z,29.23
2019-03-31T01:41:08.808Z,29.53
2019-03-31T01:43:37.370Z,27.47
2019-03-31T01:46:07.147Z,25.67
2019-03-31T01:48:35.362Z,28.50
2019-03-31T01:51:04.221Z,28.27
2019-03-31T01:53:32.471Z,26.83
2019-03-31T01:56:00.638Z,27.30
2019-03-31T01:58:28.818Z,26.83
2019-03-31T02:00:58.650Z,26.47
2019-03-31T02:03:26.906Z,31.37
2019-03-31T02:05:55.301Z,33.23
2019-03-31T02:08:23.479Z,40.13
2019-03-31T02:10:51.741Z,31.13
2019-03-31T02:13:19.899Z,37.77
2019-03-31T02:15:48.091Z,35.23
2019-03-31T02:18:17.252Z,37.20
2019-03-31T02:20:45.588Z,36.23
2019-03-31T02:23:13.815Z,33.43
2019-03-31T02:25:41.975Z,40.37
2019-03-31T02:28:10.162Z,53.30
2019-03-31T02:30:38.343Z,50.20
2019-03-31T02:33:06.504Z,40.37
2019-03-31T02:35:34.692Z,37.27
2019-03-31T02:38:02.914Z,31.07
2019-03-31T02:40:31.250Z,30.07
2019-03-31T02:42:59.432Z,43.37
2019-03-31T02:45:27.614Z,48.67
2019-03-31T02:47:55.782Z,49.70
2019-03-31T02:50:31.624Z,41.23
2019-03-31T02:52:59.806Z,51.13
2019-03-31T02:55:28.075Z,44.47
2019-03-31T02:57:56.365Z,42.17
2019-03-31T03:00:24.956Z,38.13
2019-03-31T03:02:53.422Z,30.07
2019-03-31T03:05:21.653Z,57.60
2019-03-31T03:07:49.825Z,45.70
2019-03-31T03:10:18.026Z,33.80
2019-03-31T03:12:46.210Z,33.53
2019-03-31T03:15:15.990Z,28.23
2019-03-31T03:17:44.153Z,30.07
2019-03-31T03:20:15.150Z,23.93
2019-03-31T03:22:52.229Z,32.30
2019-03-31T03:25:20.421Z,24.67
2019-03-31T03:27:55.742Z,35.57
2019-03-31T03:30:23.980Z,44.80
2019-03-31T03:33:13.346Z,42.60
2019-03-31T03:35:22.102Z,55.00
2019-03-31T03:37:50.287Z,55.30
2019-03-31T03:40:18.435Z,43.33
2019-03-31T03:42:46.710Z,42.80
2019-03-31T03:45:14.909Z,41.87
2019-03-31T03:47:43.067Z,64.90
2019-03-31T03:50:11.223Z,48.30
2019-03-31T03:52:39.466Z,80.60
2019-03-31T03:55:07.718Z,65.97
2019-03-31T03:57:35.861Z,45.17
2019-03-31T04:00:05.137Z,62.70
2019-03-31T04:02:33.369Z,35.90
2019-03-31T04:05:01.598Z,34.50
2019-03-31T04:07:29.775Z,37.47
2019-03-31T04:09:57.927Z,45.60
2019-03-31T04:12:26.172Z,49.27
2019-03-31T04:14:54.378Z,49.07
2019-03-31T04:17:22.571Z,49.50
2019-03-31T04:19:50.746Z,47.90
2019-03-31T04:22:19.937Z,48.30
2019-03-31T04:24:48.076Z,42.97
2019-03-31T04:27:18.851Z,45.57
2019-03-31T04:29:46.131Z,51.23
2019-03-31T04:32:14.369Z,50.77
2019-03-31T04:34:42.567Z,47.27
2019-03-31T04:37:10.796Z,45.93
2019-03-31T04:39:38.968Z,50.63
2019-03-31T04:42:07.125Z,64.83
2019-03-31T04:44:35.325Z,52.30
2019-03-31T04:47:03.614Z,48.40
2019-03-31T04:49:31.747Z,53.70
2019-03-31T04:52:00.094Z,52.60
2019-03-31T04:54:28.221Z,53.33
2019-03-31T04:56:56.373Z,50.03
2019-03-31T04:59:24.640Z,53.23
2019-03-31T05:01:52.828Z,51.10
2019-03-31T05:04:21.006Z,49.77
2019-03-31T05:06:49.182Z,45.30
2019-03-31T05:09:17.336Z,51.47
2019-03-31T05:11:45.482Z,53.00
2019-03-31T05:14:13.754Z,51.93
2019-03-31T05:16:41.942Z,49.83
2019-03-31T05:19:10.159Z,55.13
2019-03-31T05:21:38.383Z,53.97
2019-03-31T05:24:07.425Z,54.23
2019-03-31T05:29:21.497Z,50.27
2019-03-31T05:31:49.677Z,51.20
2019-03-31T05:34:19.435Z,50.43
2019-03-31T05:36:47.725Z,49.13
2019-03-31T05:39:15.863Z,47.20
2019-03-31T05:41:44.057Z,45.80
2019-03-31T05:44:12.254Z,40.83
2019-03-31T05:46:40.446Z,37.57
2019-03-31T05:49:08.714Z,50.63
2019-03-31T05:51:36.955Z,81.60
2019-03-31T05:54:05.118Z,68.77
2019-03-31T05:56:33.644Z,61.27
2019-03-31T05:59:02.205Z,49.77
2019-03-31T06:01:30.553Z,60.20
2019-03-31T06:03:58.773Z,49.60
2019-03-31T06:06:27.002Z,29.53
2019-03-31T06:08:55.139Z,30.87
2019-03-31T06:11:23.296Z,29.63
2019-03-31T06:13:51.489Z,35.83
2019-03-31T06:16:19.681Z,35.33
2019-03-31T06:18:47.917Z,29.30
2019-03-31T06:21:16.246Z,33.80
2019-03-31T06:23:44.703Z,34.47
2019-03-31T06:26:13.912Z,45.03
2019-03-31T06:28:42.202Z,35.93
2019-03-31T06:31:10.376Z,37.83
2019-03-31T06:33:38.556Z,33.80
2019-03-31T06:36:06.820Z,26.03
2019-03-31T06:38:35.008Z,27.07
2019-03-31T06:41:04.135Z,34.40
2019-03-31T06:43:32.605Z,31.40
2019-03-31T06:46:01.080Z,28.73
2019-03-31T06:48:29.453Z,28.47
2019-03-31T06:50:57.639Z,29.20
2019-03-31T06:53:26.094Z,28.97
2019-03-31T06:55:54.403Z,39.40
2019-03-31T06:58:22.634Z,33.70
2019-03-31T07:00:50.830Z,28.43
2019-03-31T07:03:19.324Z,26.77
2019-03-31T07:05:47.714Z,25.43
2019-03-31T07:08:15.984Z,19.13
2019-03-31T07:10:44.662Z,19.53
2019-03-31T07:13:13.019Z,19.27
2019-03-31T07:15:41.200Z,16.80
2019-03-31T07:18:09.338Z,18.83
2019-03-31T07:20:37.609Z,25.27
2019-03-31T07:23:05.966Z,17.83
2019-03-31T07:25:37.045Z,18.97
2019-03-31T07:28:05.358Z,18.80
2019-03-31T07:30:33.493Z,19.13
2019-03-31T07:33:02.131Z,20.20
2019-03-31T07:35:30.273Z,23.30
2019-03-31T07:37:58.661Z,26.43
2019-03-31T07:40:26.913Z,28.13
2019-03-31T07:42:55.699Z,26.43
2019-03-31T07:45:24.006Z,25.80
2019-03-31T07:47:52.396Z,28.07
2019-03-31T07:50:20.820Z,38.23
2019-03-31T07:52:49.222Z,30.57
2019-03-31T07:55:17.597Z,22.87
2019-03-31T07:57:46.018Z,25.07
2019-03-31T08:00:18.825Z,24.23
2019-03-31T08:02:47.025Z,20.03
2019-03-31T08:05:15.207Z,18.53
2019-03-31T08:07:43.494Z,18.97
2019-03-31T08:10:11.707Z,17.90
2019-03-31T08:12:40.057Z,18.40
2019-03-31T08:15:08.542Z,17.03
2019-03-31T08:17:36.675Z,14.97
2019-03-31T08:20:09.220Z,15.07
2019-03-31T08:22:37.464Z,14.50
2019-03-31T08:25:05.928Z,15.97
2019-03-31T08:27:34.537Z,13.27
2019-03-31T08:30:04.351Z,12.80
2019-03-31T08:32:32.498Z,12.40
2019-03-31T08:35:00.750Z,12.93
2019-03-31T08:37:29.368Z,12.47
2019-03-31T08:39:57.492Z,14.03
2019-03-31T08:42:25.676Z,13.00
2019-03-31T08:44:53.967Z,13.63
2019-03-31T08:47:22.469Z,12.97
2019-03-31T08:49:50.626Z,13.00
2019-03-31T08:52:19.129Z,14.00
2019-03-31T08:54:47.441Z,12.37
2019-03-31T08:57:15.634Z,15.90
2019-03-31T08:59:43.824Z,12.47
2019-03-31T09:02:22.763Z,12.63
2019-03-31T09:04:51.261Z,22.47
2019-03-31T09:07:19.605Z,14.83
2019-03-31T09:09:47.989Z,12.33
2019-03-31T09:12:16.689Z,11.93
2019-03-31T09:14:45.236Z,12.03
2019-03-31T09:17:15.643Z,12.67
2019-03-31T09:19:43.917Z,15.23
2019-03-31T09:22:12.230Z,13.77
2019-03-31T09:24:42.583Z,14.93
2019-03-31T09:27:13.029Z,22.10
2019-03-31T09:29:41.584Z,12.95
2019-03-31T09:32:10.830Z,13.13
2019-03-31T09:34:39.376Z,13.63
2019-03-31T09:37:07.951Z,13.70
2019-03-31T09:39:36.729Z,12.45
2019-03-31T09:42:05.206Z,13.60
2019-03-31T09:44:35.313Z,14.63
2019-03-31T09:47:03.962Z,13.17
2019-03-31T09:49:32.391Z,13.67
2019-03-31T09:52:00.711Z,23.50
2019-03-31T09:54:29.392Z,15.23
2019-03-31T09:56:57.751Z,15.00
2019-03-31T09:59:26.101Z,16.42
2019-03-31T10:01:55.431Z,13.20
2019-03-31T10:04:23.778Z,14.45
2019-03-31T10:06:52.574Z,14.58
2019-03-31T10:09:20.813Z,12.88
2019-03-31T10:11:49.096Z,14.55
2019-03-31T10:14:17.379Z,12.18
2019-03-31T10:16:45.852Z,10.40
2019-03-31T10:19:14.162Z,10.93
2019-03-31T10:21:42.680Z,10.40
2019-03-31T10:24:11.094Z,11.30
2019-03-31T10:26:39.345Z,11.00
2019-03-31T10:29:07.928Z,11.10
2019-03-31T10:31:36.330Z,10.95
2019-03-31T10:34:05.414Z,11.28
2019-03-31T10:36:44.537Z,11.18
2019-03-31T10:39:05.787Z,11.35
2019-03-31T10:41:34.238Z,13.38
2019-03-31T10:44:02.645Z,11.22
2019-03-31T10:46:31.298Z,10.45
2019-03-31T10:48:59.904Z,11.25
2019-03-31T10:51:28.116Z,11.18
2019-03-31T10:53:56.500Z,9.98
2019-03-31T10:56:25.112Z,10.88
2019-03-31T10:58:53.712Z,12.95
2019-03-31T11:01:22.917Z,11.93
2019-03-31T11:03:51.411Z,11.08
2019-03-31T11:06:19.621Z,14.70
2019-03-31T11:08:48.186Z,12.43
2019-03-31T11:11:16.372Z,15.48
2019-03-31T11:13:44.583Z,11.18
2019-03-31T11:16:13.161Z,10.80
2019-03-31T11:18:41.578Z,12.70
2019-03-31T11:21:11.414Z,12.10
2019-03-31T11:23:39.823Z,12.05
2019-03-31T11:26:08.309Z,11.75
2019-03-31T11:28:36.550Z,13.43
2019-03-31T11:31:05.136Z,12.43
2019-03-31T11:33:33.372Z,12.25
2019-03-31T11:36:02.588Z,11.88
2019-03-31T11:38:31.100Z,11.55
2019-03-31T11:41:00.178Z,11.50
2019-03-31T11:43:29.275Z,10.30
2019-03-31T11:45:58.099Z,19.70
2019-03-31T11:48:27.524Z,12.53
2019-03-31T11:51:00.355Z,11.45
2019-03-31T11:53:28.124Z,8.88
2019-03-31T11:55:56.846Z,9.95
2019-03-31T11:58:25.022Z,10.48
2019-03-31T12:00:55.428Z,9.70
2019-03-31T12:03:23.711Z,9.65
2019-03-31T12:05:51.911Z,8.60
2019-03-31T12:08:20.758Z,8.70
2019-03-31T12:10:52.450Z,8.28
2019-03-31T12:13:21.713Z,8.83
2019-03-31T12:15:52.089Z,8.48
2019-03-31T12:18:20.318Z,8.63
2019-03-31T12:20:48.826Z,7.97
2019-03-31T12:23:17.188Z,10.75
2019-03-31T12:25:45.368Z,9.73
2019-03-31T12:28:13.632Z,10.48
2019-03-31T12:30:41.880Z,12.45
2019-03-31T12:33:10.449Z,11.43
2019-03-31T12:35:38.760Z,9.80
2019-03-31T12:38:08.025Z,7.62
2019-03-31T12:40:36.660Z,9.30
2019-03-31T12:43:04.893Z,8.10
2019-03-31T12:45:33.587Z,7.40
2019-03-31T12:48:01.881Z,8.95
2019-03-31T12:50:30.149Z,8.63
2019-03-31T12:52:58.592Z,7.33
2019-03-31T12:55:27.328Z,7.55
2019-03-31T12:57:57.657Z,7.42
2019-03-31T13:00:27.386Z,9.30
2019-03-31T13:02:55.947Z,10.60
2019-03-31T13:05:24.535Z,9.18
2019-03-31T13:07:56.711Z,9.73
2019-03-31T13:10:22.934Z,9.50
2019-03-31T13:12:51.249Z,9.23
2019-03-31T13:15:20.186Z,10.50
2019-03-31T13:17:48.774Z,9.10
2019-03-31T13:20:17.341Z,10.05
2019-03-31T13:22:46.119Z,9.70
2019-03-31T13:25:14.705Z,10.30
2019-03-31T13:27:43.019Z,9.53
2019-03-31T13:30:11.467Z,8.58
2019-03-31T13:32:40.060Z,8.83
2019-03-31T13:35:08.777Z,9.43
2019-03-31T13:37:37.419Z,9.70
2019-03-31T13:40:06.980Z,10.65
2019-03-31T13:42:35.297Z,10.48
2019-03-31T13:45:04.922Z,13.75
2019-03-31T13:47:33.190Z,19.85
2019-03-31T13:50:01.472Z,12.80
2019-03-31T13:52:29.870Z,14.63
2019-03-31T13:54:58.161Z,10.93
2019-03-31T13:57:27.037Z,11.00
2019-03-31T13:59:56.285Z,11.83
2019-03-31T14:02:24.644Z,9.13
2019-03-31T14:04:53.288Z,10.85
2019-03-31T14:07:21.641Z,14.35
2019-03-31T14:09:50.133Z,12.80
2019-03-31T14:12:18.611Z,11.15
2019-03-31T14:14:46.880Z,11.20
2019-03-31T14:17:15.572Z,12.30
2019-03-31T14:19:44.053Z,11.25
2019-03-31T14:22:12.309Z,12.98
2019-03-31T14:24:40.675Z,11.00
2019-03-31T14:27:09.271Z,11.03
2019-03-31T14:29:38.126Z,11.00
2019-03-31T14:32:06.607Z,11.90
2019-03-31T14:34:35.345Z,11.43
2019-03-31T14:37:03.818Z,11.03
2019-03-31T14:39:32.027Z,10.90
2019-03-31T14:42:01.299Z,10.17
2019-03-31T14:44:29.652Z,12.30
2019-03-31T14:46:57.943Z,11.63
2019-03-31T14:49:26.176Z,11.37
2019-03-31T14:51:54.787Z,12.87
2019-03-31T14:54:23.069Z,12.07
2019-03-31T14:56:51.273Z,12.97
2019-03-31T14:59:19.613Z,12.50
2019-03-31T15:01:47.854Z,11.97
2019-03-31T15:04:16.485Z,11.53
2019-03-31T15:06:45.049Z,12.07
2019-03-31T15:09:13.326Z,13.87
2019-03-31T15:11:42.335Z,12.17
2019-03-31T15:14:10.870Z,12.33
2019-03-31T15:16:39.146Z,11.57
2019-03-31T15:19:07.451Z,14.17
2019-03-31T15:21:44.159Z,14.67
2019-03-31T15:24:06.585Z,12.53
2019-03-31T15:26:35.473Z,12.53
2019-03-31T15:29:04.131Z,10.70
2019-03-31T15:31:32.631Z,9.50
2019-03-31T15:34:00.819Z,8.87
2019-03-31T15:36:29.586Z,9.63
2019-03-31T15:39:08.715Z,9.23
2019-03-31T15:41:28.271Z,8.67
2019-03-31T15:43:57.764Z,12.50
2019-03-31T15:46:26.168Z,11.13
2019-03-31T15:48:55.082Z,20.35
2019-03-31T15:51:23.724Z,13.80
2019-03-31T15:53:52.084Z,12.50
2019-03-31T15:56:20.534Z,13.73
2019-03-31T15:58:50.137Z,13.60
2019-03-31T16:01:18.489Z,13.47
2019-03-31T16:03:46.859Z,19.10
2019-03-31T16:06:15.438Z,17.13
2019-03-31T16:08:43.704Z,13.00
2019-03-31T16:11:11.993Z,13.67
2019-03-31T16:13:40.484Z,13.37
2019-03-31T16:16:09.328Z,14.53
2019-03-31T16:18:38.267Z,14.03
2019-03-31T16:21:06.742Z,14.27
2019-03-31T16:23:34.899Z,17.43
2019-03-31T16:26:03.461Z,17.50
2019-03-31T16:28:31.967Z,13.83
2019-03-31T16:31:00.159Z,12.70
2019-03-31T16:33:28.735Z,12.23
2019-03-31T16:35:57.042Z,12.23
2019-03-31T16:38:25.858Z,10.97
2019-03-31T16:40:54.805Z,11.70
2019-03-31T16:43:23.058Z,11.90
2019-03-31T16:45:51.973Z,11.13
2019-03-31T16:48:20.184Z,11.10
2019-03-31T16:50:50.987Z,10.80
2019-03-31T16:53:20.590Z,11.67
2019-03-31T16:55:48.930Z,11.23
2019-03-31T16:58:17.190Z,11.17
2019-03-31T17:00:45.484Z,11.17
2019-03-31T17:03:14.026Z,12.33
2019-03-31T17:05:42.329Z,11.30
2019-03-31T17:08:10.832Z,19.07
2019-03-31T17:10:39.429Z,12.60
2019-03-31T17:13:07.776Z,24.83
2019-03-31T17:15:36.319Z,38.03
2019-03-31T17:18:05.271Z,38.47
2019-03-31T17:20:34.177Z,42.53
2019-03-31T17:23:03.368Z,42.60
2019-03-31T17:25:31.603Z,49.30
2019-03-31T17:28:04.463Z,43.03
2019-03-31T17:30:32.826Z,47.83
2019-03-31T17:33:02.630Z,44.33
2019-03-31T17:35:33.216Z,37.23
2019-03-31T17:38:01.522Z,35.80
2019-03-31T17:40:34.907Z,38.40
2019-03-31T17:43:04.059Z,41.57
2019-03-31T17:45:32.996Z,34.50
2019-03-31T17:48:02.315Z,42.87
2019-03-31T17:50:31.114Z,48.57
2019-03-31T17:52:59.628Z,45.90
2019-03-31T17:55:29.333Z,48.33
2019-03-31T17:58:00.158Z,55.10
2019-03-31T18:00:29.857Z,55.23
2019-03-31T18:02:58.300Z,50.23
2019-03-31T18:05:26.662Z,43.43
2019-03-31T18:07:58.505Z,43.23
2019-03-31T18:10:28.126Z,41.23
2019-03-31T18:12:56.759Z,42.00
2019-03-31T18:15:25.293Z,45.77
2019-03-31T18:17:55.402Z,49.17
2019-03-31T18:20:25.546Z,40.60
2019-03-31T18:22:54.232Z,34.77
2019-03-31T18:25:26.269Z,30.77
2019-03-31T18:27:56.914Z,46.80
2019-03-31T18:30:28.256Z,46.87
2019-03-31T18:33:07.565Z,42.20
2019-03-31T18:35:39.843Z,42.37
2019-03-31T18:38:12.547Z,55.17
2019-03-31T18:40:41.163Z,58.93
2019-03-31T18:43:12.274Z,50.43
2019-03-31T18:45:40.739Z,52.23
2019-03-31T18:48:09.413Z,51.13
2019-03-31T18:50:41.786Z,54.97
2019-03-31T18:53:17.151Z,53.77
2019-03-31T18:55:52.274Z,57.00
2019-03-31T18:58:34.777Z,61.33
2019-03-31T19:01:13.679Z,62.97
2019-03-31T19:03:53.989Z,54.33
2019-03-31T19:06:23.574Z,55.20
2019-03-31T19:09:03.126Z,62.57
2019-03-31T19:11:45.580Z,52.77
2019-03-31T19:14:27.612Z,48.47
2019-03-31T19:17:01.827Z,46.80
2019-03-31T19:19:31.849Z,30.63
2019-03-31T19:22:07.904Z,33.90
2019-03-31T19:24:46.022Z,28.53
2019-03-31T19:27:32.853Z,42.20
2019-03-31T19:30:17.881Z,54.27
2019-03-31T19:33:05.821Z,29.93
2019-03-31T19:35:37.814Z,35.27
2019-03-31T19:38:07.659Z,37.63
2019-03-31T19:41:03.984Z,31.60
2019-03-31T19:43:26.260Z,33.50
2019-03-31T19:46:08.434Z,32.40
2019-03-31T19:48:41.658Z,34.47
2019-03-31T19:51:14.583Z,30.50
2019-03-31T19:54:03.587Z,33.63
2019-03-31T19:56:38.535Z,30.17
2019-03-31T19:59:25.062Z,47.73
2019-03-31T20:01:54.974Z,63.50
2019-03-31T20:04:33.157Z,46.70
2019-03-31T20:07:03.278Z,38.17
2019-03-31T20:09:33.074Z,35.30
2019-03-31T20:12:08.081Z,40.23
2019-03-31T20:14:54.709Z,61.00
2019-03-31T20:17:33.657Z,38.20
2019-03-31T20:20:07.252Z,36.03
2019-03-31T20:22:48.725Z,36.37
2019-03-31T20:25:39.721Z,31.07
2019-03-31T20:28:24.131Z,28.87
2019-03-31T20:30:54.483Z,35.23
2019-03-31T20:33:34.982Z,31.97
2019-03-31T20:36:13.916Z,27.47
2019-03-31T20:38:55.526Z,26.03
2019-03-31T20:41:37.085Z,32.90
2019-03-31T20:44:07.421Z,26.67
2019-03-31T20:46:35.614Z,28.97
2019-03-31T20:49:07.660Z,26.47
2019-03-31T20:51:35.809Z,37.13
2019-03-31T20:54:05.006Z,26.30
2019-03-31T20:56:33.495Z,26.80
2019-03-31T20:59:01.975Z,34.53
2019-03-31T21:01:33.133Z,30.23
2019-03-31T21:04:01.482Z,31.57
2019-03-31T21:06:31.992Z,22.97
2019-03-31T21:09:06.399Z,20.90
2019-03-31T21:11:37.159Z,22.57
2019-03-31T21:14:05.456Z,20.30
2019-03-31T21:16:36.078Z,21.57
2019-03-31T21:19:06.684Z,20.00
2019-03-31T21:21:34.870Z,28.77
2019-03-31T21:24:05.660Z,26.77
2019-03-31T21:26:34.162Z,27.43
2019-03-31T21:29:04.731Z,26.23
2019-03-31T21:31:32.921Z,25.23
2019-03-31T21:34:03.418Z,27.97
2019-03-31T21:36:31.887Z,26.53
2019-03-31T21:39:00.035Z,22.97
2019-03-31T21:41:28.333Z,24.70
2019-03-31T21:44:03.351Z,21.70
2019-03-31T21:46:31.556Z,21.10
2019-03-31T21:49:04.536Z,19.23
2019-03-31T21:51:33.172Z,19.47
2019-03-31T21:54:01.369Z,19.03
2019-03-31T21:56:30.600Z,18.37
2019-03-31T21:58:58.852Z,18.37
2019-03-31T22:01:27.129Z,19.27
2019-03-31T22:03:58.228Z,19.13
2019-03-31T22:06:26.413Z,20.17
2019-03-31T22:08:54.720Z,21.70
2019-03-31T22:11:23.099Z,17.87
2019-03-31T22:13:51.587Z,27.50
2019-03-31T22:16:19.818Z,22.43
2019-03-31T22:18:50.555Z,23.37
2019-03-31T22:21:21.153Z,31.87
2019-03-31T22:23:57.684Z,19.17
2019-03-31T22:26:24.101Z,20.53
2019-03-31T22:28:54.521Z,19.27
2019-03-31T22:31:22.905Z,19.60
2019-03-31T22:33:51.103Z,17.90
2019-03-31T22:36:23.123Z,19.43
2019-03-31T22:38:51.869Z,16.57
2019-03-31T22:41:20.649Z,16.07
2019-03-31T22:43:49.420Z,16.30
2019-03-31T22:46:19.583Z,16.20
2019-03-31T22:48:49.981Z,15.53
2019-03-31T22:51:18.312Z,16.40
2019-03-31T22:53:46.905Z,15.23
2019-03-31T22:56:18.441Z,16.07
2019-03-31T22:58:47.683Z,15.93
2019-03-31T23:01:15.845Z,16.13
2019-03-31T23:03:46.468Z,15.90
2019-03-31T23:06:17.219Z,16.30
2019-03-31T23:08:45.892Z,17.03
2019-03-31T23:11:16.375Z,16.50
2019-03-31T23:13:44.759Z,17.00
2019-03-31T23:16:13.097Z,16.10
2019-03-31T23:18:41.704Z,16.90
2019-03-31T23:21:12.240Z,19.63
2019-03-31T23:23:40.536Z,18.73
2019-03-31T23:26:11.085Z,17.37
2019-03-31T23:28:40.862Z,16.53
2019-03-31T23:31:11.734Z,19.27
2019-03-31T23:33:39.961Z,17.40
2019-03-31T23:36:08.100Z,16.97
2019-03-31T23:38:36.298Z,15.80
2019-03-31T23:41:04.660Z,15.77
2019-03-31T23:43:35.433Z,16.63
2019-03-31T23:46:05.993Z,16.70
2019-03-31T23:48:34.529Z,15.70
2019-03-31T23:51:07.490Z,15.53
2019-03-31T23:53:35.869Z,35.83
2019-03-31T23:56:04.401Z,15.10
2019-03-31T23:58:37.923Z,17.33
